createdAt,value
2019-04-29T00:01:37.693Z,99.90
2019-04-29T00:04:04.192Z,99.90
2019-04-29T00:06:30.550Z,99.90
2019-04-29T00:08:57.127Z,99.90
2019-04-29T00:11:23.820Z,99.90
2019-04-29T00:13:50.312Z,99.90
2019-04-29T00:16:37.549Z,99.90
2019-04-29T00:19:17.628Z,99.90
2019-04-29T00:21:44.205Z,99.90
2019-04-29T00:24:10.716Z,99.90
2019-04-29T00:26:37.331Z,99.90
2019-04-29T00:29:03.731Z,99.90
2019-04-29T00:31:30.236Z,99.90
2019-04-29T00:33:56.622Z,99.90
2019-04-29T00:36:25.040Z,99.90
2019-04-29T00:39:09.992Z,99.90
2019-04-29T00:41:56.224Z,99.90
2019-04-29T00:44:22.732Z,99.90
2019-04-29T00:46:49.653Z,99.90
2019-04-29T00:49:15.991Z,99.90
2019-04-29T00:51:42.426Z,99.90
2019-04-29T00:54:12.372Z,99.90
2019-04-29T00:56:38.939Z,99.90
2019-04-29T00:59:05.361Z,99.90
2019-04-29T01:01:32.944Z,99.90
2019-04-29T01:03:59.342Z,99.90
2019-04-29T01:06:25.797Z,99.90
2019-04-29T01:08:52.201Z,99.90
2019-04-29T01:11:18.762Z,99.90
2019-04-29T01:13:45.371Z,99.90
2019-04-29T01:16:11.745Z,99.90
2019-04-29T01:18:38.254Z,99.90
2019-04-29T01:21:04.676Z,99.90
2019-04-29T01:23:31.040Z,99.90
2019-04-29T01:26:02.373Z,99.90
2019-04-29T01:28:32.590Z,99.90
2019-04-29T01:31:07.027Z,99.90
2019-04-29T01:33:33.535Z,99.90
2019-04-29T01:36:17.109Z,99.90
2019-04-29T01:38:43.627Z,99.90
2019-04-29T01:41:27.237Z,99.90
2019-04-29T01:44:10.342Z,99.90
2019-04-29T01:46:36.736Z,99.90
2019-04-29T01:49:03.192Z,99.90
2019-04-29T01:51:29.583Z,99.90
2019-04-29T01:53:56.047Z,99.90
2019-04-29T01:56:22.650Z,99.90
2019-04-29T01:58:48.983Z,99.90
2019-04-29T02:01:15.427Z,99.90
2019-04-29T02:03:42.268Z,99.90
2019-04-29T02:06:08.646Z,99.90
2019-04-29T02:08:36.037Z,99.90
2019-04-29T02:11:02.610Z,99.90
2019-04-29T02:13:29.091Z,99.90
2019-04-29T02:15:55.421Z,99.90
2019-04-29T02:18:21.814Z,99.90
2019-04-29T02:20:48.445Z,99.90
2019-04-29T02:23:16.848Z,99.90
2019-04-29T02:25:45.148Z,99.90
2019-04-29T02:28:11.569Z,99.90
2019-04-29T02:30:40.071Z,99.90
2019-04-29T02:33:06.503Z,99.90
2019-04-29T02:35:32.840Z,99.90
2019-04-29T02:37:59.685Z,99.90
2019-04-29T02:40:33.721Z,99.90
2019-04-29T02:43:02.069Z,99.90
2019-04-29T02:45:30.319Z,99.90
2019-04-29T02:47:56.869Z,99.90
2019-04-29T02:50:23.305Z,99.90
2019-04-29T02:52:49.705Z,99.90
2019-04-29T02:55:18.700Z,99.90
2019-04-29T02:57:50.057Z,99.90
2019-04-29T03:00:27.443Z,99.90
2019-04-29T03:02:58.306Z,99.90
2019-04-29T03:05:32.436Z,99.90
2019-04-29T03:07:58.916Z,99.90
2019-04-29T03:10:25.241Z,99.90
2019-04-29T03:12:51.665Z,99.90
2019-04-29T03:15:27.591Z,99.90
2019-04-29T03:17:53.990Z,99.90
2019-04-29T03:20:32.440Z,99.90
2019-04-29T03:23:07.671Z,99.90
2019-04-29T03:25:34.052Z,99.90
2019-04-29T03:28:00.461Z,99.90
2019-04-29T03:30:27.109Z,99.90
2019-04-29T03:32:53.561Z,99.90
2019-04-29T03:35:20.052Z,99.90
2019-04-29T03:37:46.508Z,99.90
2019-04-29T03:40:13.940Z,99.90
2019-04-29T03:42:40.356Z,99.90
2019-04-29T03:45:06.976Z,99.90
2019-04-29T03:47:33.512Z,99.90
2019-04-29T03:49:59.915Z,99.90
2019-04-29T03:52:26.264Z,99.90
2019-04-29T03:54:52.768Z,99.90
2019-04-29T03:57:19.747Z,99.90
2019-04-29T03:59:46.192Z,99.90
2019-04-29T04:02:17.184Z,99.90
2019-04-29T04:04:45.493Z,99.90
2019-04-29T04:07:28.901Z,99.90
2019-04-29T04:09:55.314Z,99.90
2019-04-29T04:12:21.696Z,99.90
2019-04-29T04:14:48.029Z,99.90
2019-04-29T04:17:20.577Z,99.90
2019-04-29T04:19:48.052Z,99.90
2019-04-29T04:22:14.492Z,99.90
2019-04-29T04:24:40.890Z,99.90
2019-04-29T04:27:07.345Z,99.90
2019-04-29T04:29:33.847Z,99.90
2019-04-29T04:32:00.352Z,99.90
2019-04-29T04:34:26.839Z,99.90
2019-04-29T04:36:53.222Z,99.90
2019-04-29T04:39:19.624Z,99.90
2019-04-29T04:41:46.180Z,99.90
2019-04-29T04:44:12.623Z,99.90
2019-04-29T04:46:39.041Z,99.90
2019-04-29T04:49:05.486Z,99.90
2019-04-29T04:51:31.952Z,99.90
2019-04-29T04:53:58.365Z,99.90
2019-04-29T04:56:24.950Z,99.90
2019-04-29T04:58:51.355Z,99.90
2019-04-29T05:01:17.678Z,99.90
2019-04-29T05:03:44.135Z,99.90
2019-04-29T05:06:10.526Z,99.90
2019-04-29T05:08:36.986Z,99.90
2019-04-29T05:11:03.526Z,99.90
2019-04-29T05:13:29.970Z,99.90
2019-04-29T05:15:56.392Z,99.90
2019-04-29T05:18:22.877Z,99.90
2019-04-29T05:20:49.357Z,99.90
2019-04-29T05:23:16.094Z,99.90
2019-04-29T05:25:42.612Z,99.90
2019-04-29T05:28:08.950Z,99.90
2019-04-29T05:30:35.389Z,99.90
2019-04-29T05:33:01.857Z,99.90
2019-04-29T05:35:35.993Z,99.90
2019-04-29T05:38:04.271Z,99.90
2019-04-29T05:40:44.684Z,99.90
2019-04-29T05:43:13.016Z,99.90
2019-04-29T05:45:56.551Z,99.90
2019-04-29T05:48:22.969Z,99.90
2019-04-29T05:50:53.840Z,99.90
2019-04-29T05:53:25.413Z,99.90
2019-04-29T05:55:52.642Z,99.90
2019-04-29T05:58:19.262Z,99.90
2019-04-29T06:00:56.681Z,99.90
2019-04-29T06:03:23.153Z,99.90
2019-04-29T06:05:49.528Z,99.90
2019-04-29T06:08:16.062Z,99.90
2019-04-29T06:10:42.463Z,99.90
2019-04-29T06:13:08.992Z,99.90
2019-04-29T06:15:35.399Z,99.90
2019-04-29T06:18:01.706Z,99.90
2019-04-29T06:20:28.133Z,99.90
2019-04-29T06:22:54.501Z,99.90
2019-04-29T06:25:20.899Z,99.90
2019-04-29T06:27:48.602Z,99.90
2019-04-29T06:30:15.221Z,99.90
2019-04-29T06:32:41.678Z,99.90
2019-04-29T06:35:10.569Z,99.90
2019-04-29T06:37:36.472Z,98.60
2019-04-29T06:40:06.150Z,99.40
2019-04-29T06:42:33.565Z,98.50
2019-04-29T06:45:00.010Z,99.10
2019-04-29T06:47:27.622Z,99.50
2019-04-29T06:49:53.997Z,97.30
2019-04-29T06:52:20.379Z,98.10
2019-04-29T06:54:46.771Z,98.10
2019-04-29T06:57:13.108Z,96.70
2019-04-29T06:59:42.971Z,96.00
2019-04-29T07:02:09.397Z,95.90
2019-04-29T07:04:39.584Z,95.20
2019-04-29T07:07:04.807Z,95.30
2019-04-29T07:09:31.285Z,93.80
2019-04-29T07:12:01.366Z,93.80
2019-04-29T07:14:28.313Z,93.90
2019-04-29T07:16:54.136Z,94.40
2019-04-29T07:19:22.232Z,93.60
2019-04-29T07:21:51.381Z,93.70
2019-04-29T07:24:20.051Z,91.00
2019-04-29T07:26:45.166Z,90.50
2019-04-29T07:29:11.695Z,90.00
2019-04-29T07:31:38.055Z,88.00
2019-04-29T07:34:04.513Z,85.10
2019-04-29T07:36:30.904Z,91.00
2019-04-29T07:38:57.660Z,91.20
2019-04-29T07:41:24.051Z,88.20
2019-04-29T07:43:50.580Z,88.20
2019-04-29T07:46:55.713Z,87.60
2019-04-29T07:49:05.909Z,84.00
2019-04-29T07:51:34.786Z,82.10
2019-04-29T07:54:00.596Z,84.80
2019-04-29T07:56:26.976Z,82.80
2019-04-29T07:58:53.517Z,78.40
2019-04-29T08:01:24.502Z,78.00
2019-04-29T08:03:48.419Z,78.60
2019-04-29T08:06:15.158Z,77.70
2019-04-29T08:08:53.823Z,81.60
2019-04-29T08:11:10.193Z,76.40
2019-04-29T08:13:37.776Z,71.90
2019-04-29T08:16:04.147Z,74.00
2019-04-29T08:18:30.565Z,75.20
2019-04-29T08:20:56.897Z,70.80
2019-04-29T08:23:23.420Z,68.50
2019-04-29T08:25:51.058Z,66.80
2019-04-29T08:28:18.942Z,69.30
2019-04-29T08:30:45.796Z,66.80
2019-04-29T08:33:13.259Z,67.30
2019-04-29T08:35:39.945Z,64.30
2019-04-29T08:38:06.388Z,61.70
2019-04-29T08:40:34.334Z,64.40
2019-04-29T08:43:06.168Z,61.10
2019-04-29T08:45:43.721Z,61.80
2019-04-29T08:48:10.902Z,62.50
2019-04-29T08:50:37.421Z,61.10
2019-04-29T08:53:03.879Z,59.70
2019-04-29T08:55:31.357Z,57.70
2019-04-29T08:57:58.465Z,56.40
2019-04-29T09:00:25.303Z,54.70
2019-04-29T09:02:51.964Z,53.50
2019-04-29T09:05:18.947Z,54.00
2019-04-29T09:07:45.373Z,53.80
2019-04-29T09:10:13.395Z,53.40
2019-04-29T09:12:39.768Z,52.50
2019-04-29T09:15:07.347Z,51.50
2019-04-29T09:17:33.717Z,54.20
2019-04-29T09:20:00.051Z,53.10
2019-04-29T09:22:28.326Z,51.10
2019-04-29T09:25:11.958Z,50.00
2019-04-29T09:27:40.689Z,50.80
2019-04-29T09:30:09.734Z,52.60
2019-04-29T09:32:38.126Z,50.60
2019-04-29T09:35:04.803Z,51.00
2019-04-29T09:37:32.532Z,47.60
2019-04-29T09:39:59.043Z,48.60
2019-04-29T09:42:45.498Z,48.30
2019-04-29T09:45:14.710Z,46.80
2019-04-29T09:47:42.619Z,47.90
2019-04-29T09:50:09.234Z,47.70
2019-04-29T09:52:35.675Z,49.10
2019-04-29T09:55:03.988Z,47.30
2019-04-29T09:57:31.826Z,49.50
2019-04-29T10:00:09.396Z,48.10
2019-04-29T10:02:42.337Z,47.80
2019-04-29T10:05:13.842Z,45.00
2019-04-29T10:07:40.357Z,46.50
2019-04-29T10:10:07.774Z,46.40
2019-04-29T10:12:34.275Z,47.60
2019-04-29T10:15:00.719Z,48.30
2019-04-29T10:17:28.960Z,48.30
2019-04-29T10:20:07.989Z,47.00
2019-04-29T10:22:34.311Z,46.20
2019-04-29T10:25:02.303Z,45.40
2019-04-29T10:27:28.714Z,46.40
2019-04-29T10:29:57.163Z,45.90
2019-04-29T10:32:23.844Z,43.00
2019-04-29T10:34:50.166Z,44.90
2019-04-29T10:37:16.545Z,47.00
2019-04-29T10:39:47.845Z,46.80
2019-04-29T10:42:16.151Z,45.00
2019-04-29T10:44:52.988Z,44.10
2019-04-29T10:47:26.858Z,44.20
2019-04-29T10:49:57.916Z,45.30
2019-04-29T10:52:24.619Z,46.70
2019-04-29T10:54:55.167Z,47.30
2019-04-29T10:57:22.553Z,43.70
2019-04-29T10:59:50.928Z,44.10
2019-04-29T11:02:20.368Z,43.80
2019-04-29T11:04:51.680Z,45.10
2019-04-29T11:07:26.546Z,43.70
2019-04-29T11:09:52.564Z,43.10
2019-04-29T11:12:19.148Z,44.50
2019-04-29T11:14:45.726Z,43.10
2019-04-29T11:17:16.481Z,45.50
2019-04-29T11:19:41.715Z,45.60
2019-04-29T11:22:08.552Z,42.70
2019-04-29T11:24:42.663Z,42.10
2019-04-29T11:27:12.343Z,42.40
2019-04-29T11:29:39.151Z,40.20
2019-04-29T11:32:07.860Z,41.80
2019-04-29T11:34:36.155Z,43.80
2019-04-29T11:37:02.859Z,42.70
2019-04-29T11:39:30.362Z,42.40
2019-04-29T11:41:59.791Z,42.20
2019-04-29T11:44:26.601Z,43.80
2019-04-29T11:46:53.463Z,43.30
2019-04-29T11:49:21.810Z,44.00
2019-04-29T11:52:08.397Z,42.80
2019-04-29T11:54:18.214Z,44.10
2019-04-29T11:56:45.023Z,42.90
2019-04-29T11:59:25.268Z,44.60
2019-04-29T12:01:59.756Z,44.80
2019-04-29T12:04:28.615Z,43.70
2019-04-29T12:06:58.117Z,44.20
2019-04-29T12:09:25.395Z,44.20
2019-04-29T12:11:53.483Z,44.90
2019-04-29T12:14:24.619Z,42.60
2019-04-29T12:16:55.996Z,43.70
2019-04-29T12:19:27.381Z,43.20
2019-04-29T12:21:55.341Z,43.30
2019-04-29T12:24:21.696Z,43.80
2019-04-29T12:26:48.158Z,44.00
2019-04-29T12:29:18.283Z,42.50
2019-04-29T12:31:56.634Z,42.00
2019-04-29T12:34:41.525Z,42.80
2019-04-29T12:37:25.664Z,42.70
2019-04-29T12:39:59.643Z,43.40
2019-04-29T12:42:30.111Z,43.10
2019-04-29T12:45:00.950Z,41.40
2019-04-29T12:47:32.207Z,42.80
2019-04-29T12:49:58.766Z,42.90
2019-04-29T12:52:25.409Z,43.20
2019-04-29T12:54:51.781Z,43.40
2019-04-29T12:57:18.916Z,43.30
2019-04-29T12:59:46.373Z,43.50
2019-04-29T13:02:19.889Z,43.20
2019-04-29T13:04:49.819Z,43.90
2019-04-29T13:07:26.677Z,44.10
2019-04-29T13:10:09.872Z,43.60
2019-04-29T13:12:39.807Z,43.40
2019-04-29T13:15:08.042Z,43.60
2019-04-29T13:17:46.426Z,44.70
2019-04-29T13:20:13.176Z,45.80
2019-04-29T13:22:39.762Z,44.20
2019-04-29T13:25:06.780Z,44.90
2019-04-29T13:27:33.321Z,45.00
2019-04-29T13:29:59.679Z,44.00
2019-04-29T13:32:29.767Z,44.00
2019-04-29T13:34:56.234Z,44.20
2019-04-29T13:37:23.899Z,45.00
2019-04-29T13:39:55.278Z,46.20
2019-04-29T13:42:18.635Z,46.10
2019-04-29T13:45:05.183Z,46.10
2019-04-29T13:47:17.186Z,46.40
2019-04-29T13:49:49.060Z,46.80
2019-04-29T13:52:14.904Z,47.20
2019-04-29T13:54:42.861Z,47.10
2019-04-29T13:57:15.606Z,47.50
2019-04-29T13:59:50.363Z,46.70
2019-04-29T14:02:31.099Z,48.10
2019-04-29T14:05:02.203Z,48.00
2019-04-29T14:07:29.905Z,47.90
2019-04-29T14:09:56.401Z,47.00
2019-04-29T14:12:47.716Z,46.10
2019-04-29T14:14:53.924Z,48.00
2019-04-29T14:17:26.641Z,47.70
2019-04-29T14:19:47.485Z,48.00
2019-04-29T14:22:21.904Z,47.40
2019-04-29T14:24:42.210Z,48.30
2019-04-29T14:27:08.525Z,47.10
2019-04-29T14:29:36.029Z,47.90
2019-04-29T14:32:02.453Z,47.80
2019-04-29T14:34:36.996Z,48.80
2019-04-29T14:37:19.660Z,50.20
2019-04-29T14:39:37.312Z,49.80
2019-04-29T14:42:02.449Z,50.00
2019-04-29T14:44:31.453Z,50.50
2019-04-29T14:47:02.577Z,50.80
2019-04-29T14:49:30.810Z,50.50
2019-04-29T14:51:57.229Z,51.20
2019-04-29T14:54:23.656Z,51.30
2019-04-29T14:56:50.124Z,53.10
2019-04-29T14:59:16.520Z,54.40
2019-04-29T15:01:44.891Z,55.30
2019-04-29T15:04:18.622Z,57.20
2019-04-29T15:06:41.245Z,58.50
2019-04-29T15:09:16.577Z,58.90
2019-04-29T15:11:54.021Z,60.00
2019-04-29T15:14:26.054Z,60.00
2019-04-29T15:17:01.627Z,61.50
2019-04-29T15:19:39.066Z,61.10
2019-04-29T15:22:06.827Z,61.40
2019-04-29T15:24:34.140Z,61.40
2019-04-29T15:27:00.660Z,61.90
2019-04-29T15:29:27.010Z,62.40
2019-04-29T15:31:54.440Z,61.90
2019-04-29T15:34:20.879Z,62.60
2019-04-29T15:36:47.196Z,62.70
2019-04-29T15:39:13.796Z,64.00
2019-04-29T15:41:40.385Z,63.50
2019-04-29T15:44:08.446Z,64.70
2019-04-29T15:46:46.233Z,64.60
2019-04-29T15:49:03.347Z,64.30
2019-04-29T15:51:29.685Z,65.40
2019-04-29T15:53:56.116Z,65.50
2019-04-29T15:56:28.737Z,63.90
2019-04-29T15:58:50.844Z,65.70
2019-04-29T16:01:22.153Z,65.10
2019-04-29T16:03:45.573Z,65.40
2019-04-29T16:06:21.484Z,66.30
2019-04-29T16:08:52.766Z,66.10
2019-04-29T16:11:33.385Z,68.00
2019-04-29T16:14:09.072Z,68.10
2019-04-29T16:16:26.408Z,69.00
2019-04-29T16:18:52.928Z,69.90
2019-04-29T16:21:20.248Z,70.10
2019-04-29T16:23:46.682Z,69.90
2019-04-29T16:26:13.154Z,68.80
2019-04-29T16:28:40.186Z,70.30
2019-04-29T16:31:12.442Z,72.50
2019-04-29T16:33:35.217Z,70.10
2019-04-29T16:36:04.874Z,71.80
2019-04-29T16:38:30.252Z,71.10
2019-04-29T16:41:01.435Z,72.20
2019-04-29T16:43:29.935Z,71.80
2019-04-29T16:45:58.813Z,71.00
2019-04-29T16:48:25.503Z,70.60
2019-04-29T16:50:51.919Z,71.50
2019-04-29T16:53:19.526Z,71.50
2019-04-29T16:55:47.010Z,71.30
2019-04-29T16:58:18.229Z,71.50
2019-04-29T17:00:46.847Z,71.90
2019-04-29T17:03:11.848Z,74.30
2019-04-29T17:05:38.234Z,72.20
2019-04-29T17:08:09.389Z,70.70
2019-04-29T17:10:39.920Z,72.10
2019-04-29T17:13:09.153Z,71.70
2019-04-29T17:15:34.819Z,71.00
2019-04-29T17:18:02.000Z,70.70
2019-04-29T17:20:28.583Z,71.90
2019-04-29T17:22:55.249Z,73.70
2019-04-29T17:25:22.502Z,74.40
2019-04-29T17:27:50.864Z,76.00
2019-04-29T17:30:23.507Z,73.70
2019-04-29T17:33:26.823Z,75.40
2019-04-29T17:35:49.355Z,77.90
2019-04-29T17:38:15.785Z,77.50
2019-04-29T17:40:50.916Z,76.50
2019-04-29T17:43:29.550Z,77.20
2019-04-29T17:45:57.999Z,78.50
2019-04-29T17:48:26.407Z,79.80
2019-04-29T17:50:58.185Z,80.80
2019-04-29T17:53:26.778Z,83.80
2019-04-29T17:56:01.064Z,81.60
2019-04-29T17:58:38.524Z,84.20
2019-04-29T18:01:24.305Z,85.70
2019-04-29T18:03:56.404Z,86.80
2019-04-29T18:06:28.098Z,88.40
2019-04-29T18:08:57.714Z,85.00
2019-04-29T18:11:25.069Z,80.40
2019-04-29T18:13:52.537Z,79.60
2019-04-29T18:16:25.896Z,79.70
2019-04-29T18:18:57.623Z,80.10
2019-04-29T18:21:43.278Z,80.00
2019-04-29T18:24:34.155Z,79.10
2019-04-29T18:27:05.454Z,78.60
2019-04-29T18:29:35.821Z,82.70
2019-04-29T18:32:04.395Z,81.20
2019-04-29T18:34:29.314Z,79.80
2019-04-29T18:37:00.480Z,79.80
2019-04-29T18:39:31.483Z,81.90
2019-04-29T18:41:58.764Z,84.10
2019-04-29T18:44:25.899Z,83.00
2019-04-29T18:46:53.871Z,80.70
2019-04-29T18:49:20.472Z,83.40
2019-04-29T18:51:46.997Z,82.90
2019-04-29T18:54:13.538Z,83.30
2019-04-29T18:56:40.003Z,86.70
2019-04-29T18:59:06.561Z,87.70
2019-04-29T19:01:34.905Z,85.10
2019-04-29T19:04:04.766Z,85.70
2019-04-29T19:06:31.805Z,87.80
2019-04-29T19:09:01.733Z,86.80
2019-04-29T19:11:32.483Z,85.00
2019-04-29T19:13:54.916Z,87.20
2019-04-29T19:16:22.055Z,87.50
2019-04-29T19:18:52.013Z,88.40
2019-04-29T19:21:17.945Z,87.40
2019-04-29T19:23:45.853Z,90.00
2019-04-29T19:26:12.997Z,87.90
2019-04-29T19:28:39.630Z,87.60
2019-04-29T19:31:09.376Z,88.50
2019-04-29T19:33:37.930Z,90.20
2019-04-29T19:36:06.013Z,90.70
2019-04-29T19:38:31.386Z,89.30
2019-04-29T19:40:57.850Z,90.10
2019-04-29T19:43:25.889Z,89.70
2019-04-29T19:45:52.437Z,90.40
2019-04-29T19:48:22.407Z,91.00
2019-04-29T19:50:51.651Z,91.40
2019-04-29T19:53:16.753Z,91.50
2019-04-29T19:55:45.587Z,91.30
2019-04-29T19:58:12.929Z,91.70
2019-04-29T20:00:40.212Z,91.70
2019-04-29T20:03:20.651Z,91.60
2019-04-29T20:05:40.205Z,92.10
2019-04-29T20:08:07.723Z,92.40
2019-04-29T20:10:44.298Z,92.50
2019-04-29T20:13:03.324Z,92.80
2019-04-29T20:15:33.957Z,93.10
2019-04-29T20:18:05.439Z,93.40
2019-04-29T20:21:28.810Z,93.40
2019-04-29T20:23:02.628Z,93.10
2019-04-29T20:25:33.598Z,93.30
2019-04-29T20:28:05.516Z,93.70
2019-04-29T20:30:26.673Z,93.90
2019-04-29T20:32:55.997Z,94.00
2019-04-29T20:35:22.579Z,93.60
2019-04-29T20:37:55.701Z,93.90
2019-04-29T20:40:17.509Z,94.40
2019-04-29T20:42:50.857Z,94.20
2019-04-29T20:45:20.115Z,94.80
2019-04-29T20:47:45.858Z,94.60
2019-04-29T20:50:13.996Z,94.80
2019-04-29T20:52:45.797Z,94.40
2019-04-29T20:55:12.862Z,94.40
2019-04-29T20:57:41.149Z,95.10
2019-04-29T21:00:08.703Z,94.70
2019-04-29T21:02:37.412Z,95.10
2019-04-29T21:05:23.206Z,95.00
2019-04-29T21:07:45.577Z,94.90
2019-04-29T21:10:12.654Z,95.10
2019-04-29T21:12:41.412Z,95.20
2019-04-29T21:15:16.329Z,95.60
2019-04-29T21:17:43.048Z,95.50
2019-04-29T21:20:09.521Z,95.50
2019-04-29T21:22:35.913Z,95.70
2019-04-29T21:25:04.483Z,95.50
2019-04-29T21:27:30.849Z,95.50
2019-04-29T21:29:57.234Z,95.80
2019-04-29T21:32:25.619Z,95.50
2019-04-29T21:34:55.602Z,96.30
2019-04-29T21:37:29.778Z,96.40
2019-04-29T21:40:00.883Z,96.20
2019-04-29T21:42:35.690Z,96.50
2019-04-29T21:45:03.592Z,96.20
2019-04-29T21:47:41.769Z,96.40
2019-04-29T21:49:57.828Z,96.40
2019-04-29T21:52:25.377Z,96.80
2019-04-29T21:54:51.985Z,96.80
2019-04-29T21:57:23.710Z,96.70
2019-04-29T21:59:48.624Z,97.10
2019-04-29T22:02:15.331Z,96.90
2019-04-29T22:04:45.024Z,97.30
2019-04-29T22:07:12.251Z,97.40
2019-04-29T22:09:40.566Z,97.80
2019-04-29T22:12:07.720Z,97.90
2019-04-29T22:14:34.891Z,97.40
2019-04-29T22:17:01.444Z,97.90
2019-04-29T22:19:28.215Z,98.60
2019-04-29T22:21:57.846Z,98.20
2019-04-29T22:24:28.558Z,98.50
2019-04-29T22:26:58.163Z,98.70
2019-04-29T22:29:24.682Z,98.60
2019-04-29T22:31:51.651Z,99.10
2019-04-29T22:34:19.306Z,99.20
2019-04-29T22:36:48.192Z,99.30
2019-04-29T22:39:15.805Z,99.30
2019-04-29T22:41:54.178Z,99.40
2019-04-29T22:44:21.876Z,99.40
2019-04-29T22:46:49.128Z,99.90
2019-04-29T22:49:19.826Z,99.80
2019-04-29T22:51:45.423Z,99.80
2019-04-29T22:54:11.967Z,99.90
2019-04-29T22:56:40.550Z,99.90
2019-04-29T22:59:06.535Z,99.90
2019-04-29T23:01:32.888Z,99.90
2019-04-29T23:03:59.295Z,99.90
2019-04-29T23:06:25.941Z,99.90
2019-04-29T23:08:52.572Z,99.90
2019-04-29T23:11:18.902Z,99.90
2019-04-29T23:13:46.169Z,99.90
2019-04-29T23:16:13.464Z,99.90
2019-04-29T23:18:44.064Z,99.90
2019-04-29T23:21:28.091Z,99.90
2019-04-29T23:24:17.320Z,99.90
2019-04-29T23:26:42.791Z,99.90
2019-04-29T23:29:09.345Z,99.90
2019-04-29T23:31:36.993Z,99.90
2019-04-29T23:34:05.626Z,99.90
2019-04-29T23:36:31.730Z,99.90
2019-04-29T23:38:58.068Z,99.90
2019-04-29T23:41:27.690Z,99.90
2019-04-29T23:43:52.603Z,99.90
2019-04-29T23:46:19.033Z,99.90
2019-04-29T23:48:46.759Z,99.90
2019-04-29T23:51:15.370Z,99.90
2019-04-29T23:53:41.934Z,99.90
2019-04-29T23:56:09.759Z,99.90
2019-04-29T23:58:41.099Z,99.90
